sensor_id;sensor_type;location;lat;lon;timestamp;P1;durP1;ratioP1;P2;durP2;ratioP2
59876;SDS011;45749;51.140;17.184;2022-12-18T00:01:19;33.63;;;19.35;;
59876;SDS011;45749;51.140;17.184;2022-12-18T00:03:55;43.83;;;22.32;;
59876;SDS011;45749;51.140;17.184;2022-12-18T00:06:21;45.38;;;21.23;;
59876;SDS011;45749;51.140;17.184;2022-12-18T00:08:49;46.53;;;21.30;;
59876;SDS011;45749;51.140;17.184;2022-12-18T00:11:20;44.23;;;20.65;;
59876;SDS011;45749;51.140;17.184;2022-12-18T00:13:48;45.28;;;20.37;;
59876;SDS011;45749;51.140;17.184;2022-12-18T00:16:18;46.92;;;23.52;;
59876;SDS011;45749;51.140;17.184;2022-12-18T00:21:15;46.58;;;21.65;;
59876;SDS011;45749;51.140;17.184;2022-12-18T00:23:42;43.40;;;19.90;;
59876;SDS011;45749;51.140;17.184;2022-12-18T00:26:20;48.48;;;21.57;;
59876;SDS011;45749;51.140;17.184;2022-12-18T00:28:49;42.13;;;16.97;;
59876;SDS011;45749;51.140;17.184;2022-12-18T00:31:18;40.15;;;17.80;;
59876;SDS011;45749;51.140;17.184;2022-12-18T00:33:47;40.83;;;17.70;;
59876;SDS011;45749;51.140;17.184;2022-12-18T00:36:17;40.65;;;18.07;;
59876;SDS011;45749;51.140;17.184;2022-12-18T00:38:46;42.23;;;20.55;;
59876;SDS011;45749;51.140;17.184;2022-12-18T00:41:14;40.58;;;19.80;;
59876;SDS011;45749;51.140;17.184;2022-12-18T00:43:59;43.25;;;20.05;;
59876;SDS011;45749;51.140;17.184;2022-12-18T00:46:26;41.95;;;17.60;;
59876;SDS011;45749;51.140;17.184;2022-12-18T00:48:52;39.75;;;19.23;;
59876;SDS011;45749;51.140;17.184;2022-12-18T00:51:18;39.25;;;18.77;;
59876;SDS011;45749;51.140;17.184;2022-12-18T00:53:44;52.80;;;21.70;;
59876;SDS011;45749;51.140;17.184;2022-12-18T00:56:10;44.05;;;19.92;;
59876;SDS011;45749;51.140;17.184;2022-12-18T00:58:35;43.48;;;20.77;;
59876;SDS011;45749;51.140;17.184;2022-12-18T01:01:03;48.30;;;22.85;;
59876;SDS011;45749;51.140;17.184;2022-12-18T01:03:30;40.73;;;20.68;;
59876;SDS011;45749;51.140;17.184;2022-12-18T01:05:56;40.90;;;18.50;;
59876;SDS011;45749;51.140;17.184;2022-12-18T01:08:22;40.92;;;19.07;;
59876;SDS011;45749;51.140;17.184;2022-12-18T01:10:48;46.30;;;21.85;;
59876;SDS011;45749;51.140;17.184;2022-12-18T01:13:14;44.15;;;22.15;;
59876;SDS011;45749;51.140;17.184;2022-12-18T01:15:47;48.50;;;24.47;;
59876;SDS011;45749;51.140;17.184;2022-12-18T01:18:15;48.28;;;24.35;;
59876;SDS011;45749;51.140;17.184;2022-12-18T01:23:19;44.60;;;20.23;;
59876;SDS011;45749;51.140;17.184;2022-12-18T01:25:45;46.23;;;21.77;;
59876;SDS011;45749;51.140;17.184;2022-12-18T01:28:11;42.60;;;19.10;;
59876;SDS011;45749;51.140;17.184;2022-12-18T01:30:36;43.33;;;18.32;;
59876;SDS011;45749;51.140;17.184;2022-12-18T01:33:05;46.73;;;21.82;;
59876;SDS011;45749;51.140;17.184;2022-12-18T01:35:31;45.75;;;20.35;;
59876;SDS011;45749;51.140;17.184;2022-12-18T01:37:57;49.40;;;22.20;;
59876;SDS011;45749;51.140;17.184;2022-12-18T01:40:23;42.20;;;17.07;;
59876;SDS011;45749;51.140;17.184;2022-12-18T01:42:52;34.25;;;18.77;;
59876;SDS011;45749;51.140;17.184;2022-12-18T01:45:29;49.30;;;21.60;;
59876;SDS011;45749;51.140;17.184;2022-12-18T01:48:04;43.25;;;18.98;;
59876;SDS011;45749;51.140;17.184;2022-12-18T01:50:33;35.95;;;18.42;;
59876;SDS011;45749;51.140;17.184;2022-12-18T01:53:06;38.40;;;20.35;;
59876;SDS011;45749;51.140;17.184;2022-12-18T01:55:47;40.80;;;21.25;;
59876;SDS011;45749;51.140;17.184;2022-12-18T01:58:15;53.30;;;21.55;;
59876;SDS011;45749;51.140;17.184;2022-12-18T02:00:43;35.68;;;18.75;;
59876;SDS011;45749;51.140;17.184;2022-12-18T02:03:09;49.45;;;21.75;;
59876;SDS011;45749;51.140;17.184;2022-12-18T02:08:21;45.50;;;24.12;;
59876;SDS011;45749;51.140;17.184;2022-12-18T02:13:46;38.00;;;19.27;;
59876;SDS011;45749;51.140;17.184;2022-12-18T02:16:16;54.90;;;21.42;;
59876;SDS011;45749;51.140;17.184;2022-12-18T02:21:57;47.53;;;20.10;;
59876;SDS011;45749;51.140;17.184;2022-12-18T02:27:48;44.20;;;22.50;;
59876;SDS011;45749;51.140;17.184;2022-12-18T02:30:16;48.98;;;21.55;;
59876;SDS011;45749;51.140;17.184;2022-12-18T02:32:46;53.65;;;28.10;;
59876;SDS011;45749;51.140;17.184;2022-12-18T02:37:46;48.13;;;20.52;;
59876;SDS011;45749;51.140;17.184;2022-12-18T02:40:13;56.65;;;24.57;;
59876;SDS011;45749;51.140;17.184;2022-12-18T02:42:41;56.35;;;24.55;;
59876;SDS011;45749;51.140;17.184;2022-12-18T02:45:07;48.90;;;23.12;;
59876;SDS011;45749;51.140;17.184;2022-12-18T02:47:36;46.70;;;21.77;;
59876;SDS011;45749;51.140;17.184;2022-12-18T03:01:28;45.23;;;21.85;;
59876;SDS011;45749;51.140;17.184;2022-12-18T03:03:59;45.58;;;19.98;;
59876;SDS011;45749;51.140;17.184;2022-12-18T03:06:33;41.10;;;19.57;;
59876;SDS011;45749;51.140;17.184;2022-12-18T03:09:17;38.65;;;19.15;;
59876;SDS011;45749;51.140;17.184;2022-12-18T03:11:44;44.83;;;20.70;;
59876;SDS011;45749;51.140;17.184;2022-12-18T03:14:32;40.03;;;19.85;;
59876;SDS011;45749;51.140;17.184;2022-12-18T03:17:02;38.70;;;18.57;;
59876;SDS011;45749;51.140;17.184;2022-12-18T03:19:31;47.15;;;19.80;;
59876;SDS011;45749;51.140;17.184;2022-12-18T03:22:00;45.20;;;19.75;;
59876;SDS011;45749;51.140;17.184;2022-12-18T03:24:29;39.40;;;19.98;;
59876;SDS011;45749;51.140;17.184;2022-12-18T03:26:58;41.02;;;20.60;;
59876;SDS011;45749;51.140;17.184;2022-12-18T03:29:34;40.15;;;18.75;;
59876;SDS011;45749;51.140;17.184;2022-12-18T03:32:15;37.85;;;20.45;;
59876;SDS011;45749;51.140;17.184;2022-12-18T03:34:53;38.08;;;19.00;;
59876;SDS011;45749;51.140;17.184;2022-12-18T03:37:23;38.45;;;19.45;;
59876;SDS011;45749;51.140;17.184;2022-12-18T03:39:49;38.73;;;18.77;;
59876;SDS011;45749;51.140;17.184;2022-12-18T03:42:17;31.07;;;17.50;;
59876;SDS011;45749;51.140;17.184;2022-12-18T03:45:08;36.63;;;18.65;;
59876;SDS011;45749;51.140;17.184;2022-12-18T03:50:28;40.73;;;17.73;;
59876;SDS011;45749;51.140;17.184;2022-12-18T03:53:13;39.40;;;18.80;;
59876;SDS011;45749;51.140;17.184;2022-12-18T03:58:20;34.40;;;16.27;;
59876;SDS011;45749;51.140;17.184;2022-12-18T04:00:50;31.52;;;16.62;;
59876;SDS011;45749;51.140;17.184;2022-12-18T04:03:19;35.23;;;16.48;;
59876;SDS011;45749;51.140;17.184;2022-12-18T04:05:47;38.30;;;18.00;;
59876;SDS011;45749;51.140;17.184;2022-12-18T04:08:15;45.78;;;22.62;;
59876;SDS011;45749;51.140;17.184;2022-12-18T04:10:41;40.35;;;17.05;;
59876;SDS011;45749;51.140;17.184;2022-12-18T04:13:08;45.75;;;19.32;;
59876;SDS011;45749;51.140;17.184;2022-12-18T04:15:35;32.65;;;15.78;;
59876;SDS011;45749;51.140;17.184;2022-12-18T04:18:03;42.08;;;20.25;;
59876;SDS011;45749;51.140;17.184;2022-12-18T04:20:29;42.55;;;19.12;;
59876;SDS011;45749;51.140;17.184;2022-12-18T04:22:55;34.30;;;18.05;;
59876;SDS011;45749;51.140;17.184;2022-12-18T04:25:20;37.20;;;18.20;;
59876;SDS011;45749;51.140;17.184;2022-12-18T04:27:46;38.83;;;18.75;;
59876;SDS011;45749;51.140;17.184;2022-12-18T04:30:12;37.00;;;17.48;;
59876;SDS011;45749;51.140;17.184;2022-12-18T04:32:38;36.90;;;20.12;;
59876;SDS011;45749;51.140;17.184;2022-12-18T04:35:04;34.83;;;18.20;;
59876;SDS011;45749;51.140;17.184;2022-12-18T04:37:32;37.15;;;16.82;;
59876;SDS011;45749;51.140;17.184;2022-12-18T04:39:58;41.05;;;16.30;;
59876;SDS011;45749;51.140;17.184;2022-12-18T04:42:24;35.43;;;17.00;;
59876;SDS011;45749;51.140;17.184;2022-12-18T04:44:50;42.75;;;18.60;;
59876;SDS011;45749;51.140;17.184;2022-12-18T04:47:16;38.60;;;17.82;;
59876;SDS011;45749;51.140;17.184;2022-12-18T04:49:42;35.92;;;17.07;;
59876;SDS011;45749;51.140;17.184;2022-12-18T04:52:07;49.48;;;20.08;;
59876;SDS011;45749;51.140;17.184;2022-12-18T04:54:33;41.30;;;18.17;;
59876;SDS011;45749;51.140;17.184;2022-12-18T04:57:00;37.03;;;17.77;;
59876;SDS011;45749;51.140;17.184;2022-12-18T04:59:26;36.93;;;17.50;;
59876;SDS011;45749;51.140;17.184;2022-12-18T05:01:51;36.98;;;18.07;;
59876;SDS011;45749;51.140;17.184;2022-12-18T05:04:18;40.00;;;20.05;;
59876;SDS011;45749;51.140;17.184;2022-12-18T05:06:44;35.35;;;17.50;;
59876;SDS011;45749;51.140;17.184;2022-12-18T05:09:10;40.70;;;20.08;;
59876;SDS011;45749;51.140;17.184;2022-12-18T05:11:35;41.83;;;19.27;;
59876;SDS011;45749;51.140;17.184;2022-12-18T05:14:01;41.30;;;18.62;;
59876;SDS011;45749;51.140;17.184;2022-12-18T05:16:27;37.42;;;16.80;;
59876;SDS011;45749;51.140;17.184;2022-12-18T05:18:53;35.80;;;18.25;;
59876;SDS011;45749;51.140;17.184;2022-12-18T05:21:19;41.75;;;18.05;;
59876;SDS011;45749;51.140;17.184;2022-12-18T05:23:45;31.68;;;16.00;;
59876;SDS011;45749;51.140;17.184;2022-12-18T05:26:14;33.15;;;16.37;;
59876;SDS011;45749;51.140;17.184;2022-12-18T05:28:42;29.23;;;15.45;;
59876;SDS011;45749;51.140;17.184;2022-12-18T05:31:08;41.48;;;18.40;;
59876;SDS011;45749;51.140;17.184;2022-12-18T05:33:34;37.50;;;15.30;;
59876;SDS011;45749;51.140;17.184;2022-12-18T05:36:01;35.90;;;18.12;;
59876;SDS011;45749;51.140;17.184;2022-12-18T05:38:29;29.60;;;16.02;;
59876;SDS011;45749;51.140;17.184;2022-12-18T05:40:56;37.80;;;17.98;;
59876;SDS011;45749;51.140;17.184;2022-12-18T05:43:23;36.77;;;18.35;;
59876;SDS011;45749;51.140;17.184;2022-12-18T05:45:52;36.80;;;18.48;;
59876;SDS011;45749;51.140;17.184;2022-12-18T05:48:19;36.48;;;17.95;;
59876;SDS011;45749;51.140;17.184;2022-12-18T05:50:47;38.67;;;17.57;;
59876;SDS011;45749;51.140;17.184;2022-12-18T05:53:16;42.27;;;18.12;;
59876;SDS011;45749;51.140;17.184;2022-12-18T05:55:44;36.28;;;16.97;;
59876;SDS011;45749;51.140;17.184;2022-12-18T05:58:11;36.98;;;17.80;;
59876;SDS011;45749;51.140;17.184;2022-12-18T06:00:40;39.63;;;17.62;;
59876;SDS011;45749;51.140;17.184;2022-12-18T06:03:09;38.88;;;16.73;;
59876;SDS011;45749;51.140;17.184;2022-12-18T06:05:37;36.60;;;17.80;;
59876;SDS011;45749;51.140;17.184;2022-12-18T06:08:05;34.80;;;17.80;;
59876;SDS011;45749;51.140;17.184;2022-12-18T06:10:31;34.67;;;17.05;;
59876;SDS011;45749;51.140;17.184;2022-12-18T06:12:58;35.73;;;16.77;;
59876;SDS011;45749;51.140;17.184;2022-12-18T06:15:24;34.75;;;16.37;;
59876;SDS011;45749;51.140;17.184;2022-12-18T06:17:50;36.33;;;20.80;;
59876;SDS011;45749;51.140;17.184;2022-12-18T06:20:16;34.58;;;16.97;;
59876;SDS011;45749;51.140;17.184;2022-12-18T06:22:42;34.05;;;16.15;;
59876;SDS011;45749;51.140;17.184;2022-12-18T06:25:08;34.20;;;16.87;;
59876;SDS011;45749;51.140;17.184;2022-12-18T06:27:34;39.00;;;19.62;;
59876;SDS011;45749;51.140;17.184;2022-12-18T06:30:00;39.98;;;18.23;;
59876;SDS011;45749;51.140;17.184;2022-12-18T06:32:27;42.95;;;20.57;;
59876;SDS011;45749;51.140;17.184;2022-12-18T06:34:53;30.10;;;16.35;;
59876;SDS011;45749;51.140;17.184;2022-12-18T06:37:20;38.40;;;18.50;;
59876;SDS011;45749;51.140;17.184;2022-12-18T06:39:49;37.05;;;19.00;;
59876;SDS011;45749;51.140;17.184;2022-12-18T06:42:15;39.08;;;20.60;;
59876;SDS011;45749;51.140;17.184;2022-12-18T06:44:41;42.35;;;20.68;;
59876;SDS011;45749;51.140;17.184;2022-12-18T06:47:06;43.83;;;19.35;;
59876;SDS011;45749;51.140;17.184;2022-12-18T06:49:32;42.10;;;21.70;;
59876;SDS011;45749;51.140;17.184;2022-12-18T06:51:58;45.23;;;21.00;;
59876;SDS011;45749;51.140;17.184;2022-12-18T06:54:24;38.80;;;20.65;;
59876;SDS011;45749;51.140;17.184;2022-12-18T06:56:50;49.27;;;20.70;;
59876;SDS011;45749;51.140;17.184;2022-12-18T06:59:15;49.00;;;22.07;;
59876;SDS011;45749;51.140;17.184;2022-12-18T07:01:41;53.05;;;23.02;;
59876;SDS011;45749;51.140;17.184;2022-12-18T07:04:07;44.05;;;21.25;;
59876;SDS011;45749;51.140;17.184;2022-12-18T07:06:33;49.88;;;23.42;;
59876;SDS011;45749;51.140;17.184;2022-12-18T07:08:59;52.03;;;26.42;;
59876;SDS011;45749;51.140;17.184;2022-12-18T07:11:25;46.08;;;23.35;;
59876;SDS011;45749;51.140;17.184;2022-12-18T07:13:51;46.85;;;23.47;;
59876;SDS011;45749;51.140;17.184;2022-12-18T07:16:18;47.88;;;24.72;;
59876;SDS011;45749;51.140;17.184;2022-12-18T07:18:46;61.53;;;32.03;;
59876;SDS011;45749;51.140;17.184;2022-12-18T07:21:14;87.67;;;43.87;;
59876;SDS011;45749;51.140;17.184;2022-12-18T07:23:43;62.23;;;29.12;;
59876;SDS011;45749;51.140;17.184;2022-12-18T07:26:11;51.13;;;23.65;;
59876;SDS011;45749;51.140;17.184;2022-12-18T07:28:39;49.85;;;22.45;;
59876;SDS011;45749;51.140;17.184;2022-12-18T07:31:08;49.83;;;22.62;;
59876;SDS011;45749;51.140;17.184;2022-12-18T07:33:37;49.58;;;23.10;;
59876;SDS011;45749;51.140;17.184;2022-12-18T07:36:04;46.45;;;23.62;;
59876;SDS011;45749;51.140;17.184;2022-12-18T07:38:32;50.67;;;22.48;;
59876;SDS011;45749;51.140;17.184;2022-12-18T07:41:09;50.38;;;26.00;;
59876;SDS011;45749;51.140;17.184;2022-12-18T07:43:34;53.10;;;26.55;;
59876;SDS011;45749;51.140;17.184;2022-12-18T07:46:00;62.30;;;30.80;;
59876;SDS011;45749;51.140;17.184;2022-12-18T07:48:27;67.00;;;28.80;;
59876;SDS011;45749;51.140;17.184;2022-12-18T07:50:57;50.28;;;24.47;;
59876;SDS011;45749;51.140;17.184;2022-12-18T07:53:30;52.90;;;26.15;;
59876;SDS011;45749;51.140;17.184;2022-12-18T07:55:58;71.75;;;31.75;;
59876;SDS011;45749;51.140;17.184;2022-12-18T07:58:27;88.33;;;40.52;;
59876;SDS011;45749;51.140;17.184;2022-12-18T08:00:54;58.40;;;28.75;;
59876;SDS011;45749;51.140;17.184;2022-12-18T08:03:31;58.33;;;28.02;;
59876;SDS011;45749;51.140;17.184;2022-12-18T08:06:05;55.38;;;26.52;;
59876;SDS011;45749;51.140;17.184;2022-12-18T08:08:34;48.25;;;25.50;;
59876;SDS011;45749;51.140;17.184;2022-12-18T08:11:00;61.33;;;29.00;;
59876;SDS011;45749;51.140;17.184;2022-12-18T08:13:27;63.10;;;30.88;;
59876;SDS011;45749;51.140;17.184;2022-12-18T08:15:57;49.63;;;24.43;;
59876;SDS011;45749;51.140;17.184;2022-12-18T08:18:29;56.35;;;25.32;;
59876;SDS011;45749;51.140;17.184;2022-12-18T08:20:57;57.10;;;27.27;;
59876;SDS011;45749;51.140;17.184;2022-12-18T08:23:25;63.33;;;30.35;;
59876;SDS011;45749;51.140;17.184;2022-12-18T08:25:51;45.80;;;23.30;;
59876;SDS011;45749;51.140;17.184;2022-12-18T08:28:17;59.48;;;27.17;;
59876;SDS011;45749;51.140;17.184;2022-12-18T08:30:46;58.23;;;26.12;;
59876;SDS011;45749;51.140;17.184;2022-12-18T08:33:19;56.45;;;28.20;;
59876;SDS011;45749;51.140;17.184;2022-12-18T08:35:46;60.38;;;27.52;;
59876;SDS011;45749;51.140;17.184;2022-12-18T08:38:12;51.58;;;25.70;;
59876;SDS011;45749;51.140;17.184;2022-12-18T08:40:38;53.78;;;24.15;;
59876;SDS011;45749;51.140;17.184;2022-12-18T08:43:04;46.88;;;23.00;;
59876;SDS011;45749;51.140;17.184;2022-12-18T08:45:48;47.65;;;25.15;;
59876;SDS011;45749;51.140;17.184;2022-12-18T08:48:15;44.77;;;21.97;;
59876;SDS011;45749;51.140;17.184;2022-12-18T08:50:41;50.55;;;26.27;;
59876;SDS011;45749;51.140;17.184;2022-12-18T08:53:07;49.25;;;23.83;;
59876;SDS011;45749;51.140;17.184;2022-12-18T08:55:33;50.98;;;26.05;;
59876;SDS011;45749;51.140;17.184;2022-12-18T08:57:59;48.95;;;27.05;;
59876;SDS011;45749;51.140;17.184;2022-12-18T09:00:25;44.45;;;22.58;;
59876;SDS011;45749;51.140;17.184;2022-12-18T09:02:51;47.35;;;24.00;;
59876;SDS011;45749;51.140;17.184;2022-12-18T09:05:17;50.98;;;25.80;;
59876;SDS011;45749;51.140;17.184;2022-12-18T09:07:44;54.60;;;25.57;;
59876;SDS011;45749;51.140;17.184;2022-12-18T09:10:10;46.28;;;22.87;;
59876;SDS011;45749;51.140;17.184;2022-12-18T09:12:36;57.43;;;25.32;;
59876;SDS011;45749;51.140;17.184;2022-12-18T09:15:02;49.95;;;24.72;;
59876;SDS011;45749;51.140;17.184;2022-12-18T09:17:28;49.08;;;24.35;;
59876;SDS011;45749;51.140;17.184;2022-12-18T09:19:54;37.50;;;20.70;;
59876;SDS011;45749;51.140;17.184;2022-12-18T09:22:20;49.75;;;25.60;;
59876;SDS011;45749;51.140;17.184;2022-12-18T09:24:46;49.23;;;26.12;;
59876;SDS011;45749;51.140;17.184;2022-12-18T09:27:14;40.45;;;22.58;;
59876;SDS011;45749;51.140;17.184;2022-12-18T09:29:40;48.65;;;24.20;;
59876;SDS011;45749;51.140;17.184;2022-12-18T09:32:05;54.80;;;26.17;;
59876;SDS011;45749;51.140;17.184;2022-12-18T09:34:32;51.13;;;25.97;;
59876;SDS011;45749;51.140;17.184;2022-12-18T09:36:58;65.05;;;33.70;;
59876;SDS011;45749;51.140;17.184;2022-12-18T09:39:25;62.05;;;28.38;;
59876;SDS011;45749;51.140;17.184;2022-12-18T09:41:52;56.35;;;25.97;;
59876;SDS011;45749;51.140;17.184;2022-12-18T09:44:32;45.33;;;23.77;;
59876;SDS011;45749;51.140;17.184;2022-12-18T09:49:58;42.38;;;23.32;;
59876;SDS011;45749;51.140;17.184;2022-12-18T09:52:30;40.95;;;20.02;;
59876;SDS011;45749;51.140;17.184;2022-12-18T09:55:10;54.42;;;28.42;;
59876;SDS011;45749;51.140;17.184;2022-12-18T09:57:53;50.92;;;25.30;;
59876;SDS011;45749;51.140;17.184;2022-12-18T10:00:32;48.73;;;25.02;;
59876;SDS011;45749;51.140;17.184;2022-12-18T10:02:59;46.37;;;23.40;;
59876;SDS011;45749;51.140;17.184;2022-12-18T10:08:41;49.42;;;24.43;;
59876;SDS011;45749;51.140;17.184;2022-12-18T10:25:01;45.00;;;24.12;;
59876;SDS011;45749;51.140;17.184;2022-12-18T10:27:43;49.20;;;23.60;;
59876;SDS011;45749;51.140;17.184;2022-12-18T10:30:13;61.65;;;29.07;;
59876;SDS011;45749;51.140;17.184;2022-12-18T10:35:11;45.67;;;23.67;;
59876;SDS011;45749;51.140;17.184;2022-12-18T10:38:03;47.83;;;26.10;;
59876;SDS011;45749;51.140;17.184;2022-12-18T10:40:53;43.55;;;21.02;;
59876;SDS011;45749;51.140;17.184;2022-12-18T10:43:41;51.25;;;24.92;;
59876;SDS011;45749;51.140;17.184;2022-12-18T10:48:40;47.10;;;24.18;;
59876;SDS011;45749;51.140;17.184;2022-12-18T10:51:27;45.30;;;24.43;;
59876;SDS011;45749;51.140;17.184;2022-12-18T10:56:36;47.03;;;20.70;;
59876;SDS011;45749;51.140;17.184;2022-12-18T10:59:04;47.80;;;22.73;;
59876;SDS011;45749;51.140;17.184;2022-12-18T11:04:29;47.23;;;24.65;;
59876;SDS011;45749;51.140;17.184;2022-12-18T11:07:04;52.30;;;25.88;;
59876;SDS011;45749;51.140;17.184;2022-12-18T11:09:33;50.43;;;26.35;;
59876;SDS011;45749;51.140;17.184;2022-12-18T11:12:18;49.25;;;26.20;;
59876;SDS011;45749;51.140;17.184;2022-12-18T11:14:47;47.00;;;23.22;;
59876;SDS011;45749;51.140;17.184;2022-12-18T11:17:18;56.37;;;27.98;;
59876;SDS011;45749;51.140;17.184;2022-12-18T11:19:53;41.70;;;22.10;;
59876;SDS011;45749;51.140;17.184;2022-12-18T11:24:58;51.18;;;25.77;;
59876;SDS011;45749;51.140;17.184;2022-12-18T11:27:28;54.38;;;26.15;;
59876;SDS011;45749;51.140;17.184;2022-12-18T11:30:07;51.63;;;27.95;;
59876;SDS011;45749;51.140;17.184;2022-12-18T11:32:51;49.48;;;26.95;;
59876;SDS011;45749;51.140;17.184;2022-12-18T11:35:47;54.03;;;25.30;;
59876;SDS011;45749;51.140;17.184;2022-12-18T11:43:55;56.77;;;26.73;;
59876;SDS011;45749;51.140;17.184;2022-12-18T11:46:26;58.50;;;28.15;;
59876;SDS011;45749;51.140;17.184;2022-12-18T11:49:07;52.80;;;25.68;;
59876;SDS011;45749;51.140;17.184;2022-12-18T11:51:58;51.68;;;25.48;;
59876;SDS011;45749;51.140;17.184;2022-12-18T11:54:50;51.75;;;27.22;;
59876;SDS011;45749;51.140;17.184;2022-12-18T12:10:59;66.90;;;31.07;;
59876;SDS011;45749;51.140;17.184;2022-12-18T12:13:35;76.82;;;35.88;;
59876;SDS011;45749;51.140;17.184;2022-12-18T12:19:00;62.17;;;28.60;;
59876;SDS011;45749;51.140;17.184;2022-12-18T12:29:50;56.08;;;26.82;;
59876;SDS011;45749;51.140;17.184;2022-12-18T12:40:57;71.90;;;30.80;;
59876;SDS011;45749;51.140;17.184;2022-12-18T12:46:14;52.83;;;25.88;;
59876;SDS011;45749;51.140;17.184;2022-12-18T12:51:31;51.42;;;24.95;;
59876;SDS011;45749;51.140;17.184;2022-12-18T12:54:01;58.10;;;29.82;;
59876;SDS011;45749;51.140;17.184;2022-12-18T12:56:39;52.33;;;26.42;;
59876;SDS011;45749;51.140;17.184;2022-12-18T12:59:50;49.05;;;27.22;;
59876;SDS011;45749;51.140;17.184;2022-12-18T13:10:35;49.30;;;23.77;;
59876;SDS011;45749;51.140;17.184;2022-12-18T13:13:08;53.90;;;24.85;;
59876;SDS011;45749;51.140;17.184;2022-12-18T13:20:44;55.73;;;25.92;;
59876;SDS011;45749;51.140;17.184;2022-12-18T13:34:30;52.15;;;25.30;;
59876;SDS011;45749;51.140;17.184;2022-12-18T13:36:48;53.90;;;24.63;;
59876;SDS011;45749;51.140;17.184;2022-12-18T13:39:25;55.80;;;27.62;;
59876;SDS011;45749;51.140;17.184;2022-12-18T13:41:50;57.75;;;28.32;;
59876;SDS011;45749;51.140;17.184;2022-12-18T13:44:52;57.58;;;26.65;;
59876;SDS011;45749;51.140;17.184;2022-12-18T13:47:02;55.50;;;27.15;;
59876;SDS011;45749;51.140;17.184;2022-12-18T13:49:36;59.85;;;26.45;;
59876;SDS011;45749;51.140;17.184;2022-12-18T13:52:19;54.08;;;24.95;;
59876;SDS011;45749;51.140;17.184;2022-12-18T13:54:53;60.50;;;24.35;;
59876;SDS011;45749;51.140;17.184;2022-12-18T13:57:28;46.95;;;25.02;;
59876;SDS011;45749;51.140;17.184;2022-12-18T13:59:59;53.52;;;27.10;;
59876;SDS011;45749;51.140;17.184;2022-12-18T14:02:46;60.20;;;27.22;;
59876;SDS011;45749;51.140;17.184;2022-12-18T14:05:25;63.80;;;31.07;;
59876;SDS011;45749;51.140;17.184;2022-12-18T14:08:05;57.95;;;28.50;;
59876;SDS011;45749;51.140;17.184;2022-12-18T14:10:34;62.13;;;29.75;;
59876;SDS011;45749;51.140;17.184;2022-12-18T14:13:05;61.50;;;28.38;;
59876;SDS011;45749;51.140;17.184;2022-12-18T14:29:39;86.65;;;39.13;;
59876;SDS011;45749;51.140;17.184;2022-12-18T14:32:15;85.62;;;41.70;;
59876;SDS011;45749;51.140;17.184;2022-12-18T14:34:47;76.00;;;37.53;;
59876;SDS011;45749;51.140;17.184;2022-12-18T14:37:17;80.38;;;33.95;;
59876;SDS011;45749;51.140;17.184;2022-12-18T14:39:56;87.67;;;39.13;;
59876;SDS011;45749;51.140;17.184;2022-12-18T14:42:26;85.25;;;40.23;;
59876;SDS011;45749;51.140;17.184;2022-12-18T14:51:05;91.40;;;41.25;;
59876;SDS011;45749;51.140;17.184;2022-12-18T14:54:04;80.45;;;39.18;;
59876;SDS011;45749;51.140;17.184;2022-12-18T14:56:35;81.32;;;35.45;;
59876;SDS011;45749;51.140;17.184;2022-12-18T14:59:06;100.53;;;45.90;;
59876;SDS011;45749;51.140;17.184;2022-12-18T15:01:47;116.65;;;55.48;;
59876;SDS011;45749;51.140;17.184;2022-12-18T15:04:27;102.75;;;48.33;;
59876;SDS011;45749;51.140;17.184;2022-12-18T15:07:19;120.40;;;55.38;;
59876;SDS011;45749;51.140;17.184;2022-12-18T15:13:20;78.40;;;35.00;;
59876;SDS011;45749;51.140;17.184;2022-12-18T15:23:29;73.75;;;35.25;;
59876;SDS011;45749;51.140;17.184;2022-12-18T15:25:56;68.95;;;30.65;;
59876;SDS011;45749;51.140;17.184;2022-12-18T15:28:37;75.67;;;36.73;;
59876;SDS011;45749;51.140;17.184;2022-12-18T15:36:41;76.20;;;35.50;;
59876;SDS011;45749;51.140;17.184;2022-12-18T15:39:10;76.50;;;33.35;;
59876;SDS011;45749;51.140;17.184;2022-12-18T15:41:37;66.45;;;32.17;;
59876;SDS011;45749;51.140;17.184;2022-12-18T15:44:14;68.65;;;33.65;;
59876;SDS011;45749;51.140;17.184;2022-12-18T15:46:48;69.80;;;33.90;;
59876;SDS011;45749;51.140;17.184;2022-12-18T15:49:14;61.55;;;31.48;;
59876;SDS011;45749;51.140;17.184;2022-12-18T15:51:40;58.78;;;28.77;;
59876;SDS011;45749;51.140;17.184;2022-12-18T15:54:09;65.95;;;29.67;;
59876;SDS011;45749;51.140;17.184;2022-12-18T15:56:38;62.33;;;28.02;;
59876;SDS011;45749;51.140;17.184;2022-12-18T15:59:30;60.65;;;29.18;;
59876;SDS011;45749;51.140;17.184;2022-12-18T16:01:55;61.53;;;28.00;;
59876;SDS011;45749;51.140;17.184;2022-12-18T16:04:22;57.80;;;27.25;;
59876;SDS011;45749;51.140;17.184;2022-12-18T16:06:49;55.92;;;27.62;;
59876;SDS011;45749;51.140;17.184;2022-12-18T16:09:16;55.28;;;26.52;;
59876;SDS011;45749;51.140;17.184;2022-12-18T16:11:42;64.03;;;27.17;;
59876;SDS011;45749;51.140;17.184;2022-12-18T16:14:21;52.83;;;25.27;;
59876;SDS011;45749;51.140;17.184;2022-12-18T16:16:54;58.35;;;27.60;;
59876;SDS011;45749;51.140;17.184;2022-12-18T16:19:23;56.28;;;27.20;;
59876;SDS011;45749;51.140;17.184;2022-12-18T16:21:50;55.30;;;28.07;;
59876;SDS011;45749;51.140;17.184;2022-12-18T16:24:22;59.05;;;29.35;;
59876;SDS011;45749;51.140;17.184;2022-12-18T16:26:51;57.48;;;26.37;;
59876;SDS011;45749;51.140;17.184;2022-12-18T16:29:19;59.33;;;29.82;;
59876;SDS011;45749;51.140;17.184;2022-12-18T16:31:48;63.35;;;28.30;;
59876;SDS011;45749;51.140;17.184;2022-12-18T16:34:17;66.55;;;30.20;;
59876;SDS011;45749;51.140;17.184;2022-12-18T16:36:52;58.90;;;27.82;;
59876;SDS011;45749;51.140;17.184;2022-12-18T16:39:21;62.70;;;29.15;;
59876;SDS011;45749;51.140;17.184;2022-12-18T16:41:47;68.22;;;31.27;;
59876;SDS011;45749;51.140;17.184;2022-12-18T16:44:13;63.42;;;28.27;;
59876;SDS011;45749;51.140;17.184;2022-12-18T16:46:39;66.92;;;31.60;;
59876;SDS011;45749;51.140;17.184;2022-12-18T16:49:08;67.15;;;28.45;;
59876;SDS011;45749;51.140;17.184;2022-12-18T16:51:35;71.07;;;28.42;;
59876;SDS011;45749;51.140;17.184;2022-12-18T16:54:01;76.45;;;32.58;;
59876;SDS011;45749;51.140;17.184;2022-12-18T16:56:27;64.80;;;30.97;;
59876;SDS011;45749;51.140;17.184;2022-12-18T16:58:54;72.92;;;33.42;;
59876;SDS011;45749;51.140;17.184;2022-12-18T17:01:23;73.90;;;35.28;;
59876;SDS011;45749;51.140;17.184;2022-12-18T17:03:55;97.55;;;50.03;;
59876;SDS011;45749;51.140;17.184;2022-12-18T17:06:21;73.65;;;36.05;;
59876;SDS011;45749;51.140;17.184;2022-12-18T17:08:47;88.80;;;38.30;;
59876;SDS011;45749;51.140;17.184;2022-12-18T17:11:16;86.30;;;40.78;;
59876;SDS011;45749;51.140;17.184;2022-12-18T17:13:42;98.60;;;44.20;;
59876;SDS011;45749;51.140;17.184;2022-12-18T17:16:08;92.45;;;40.95;;
59876;SDS011;45749;51.140;17.184;2022-12-18T17:18:35;100.82;;;43.68;;
59876;SDS011;45749;51.140;17.184;2022-12-18T17:21:02;101.22;;;47.03;;